Time;durP1;ratioP1;P1;durP2;ratioP2;P2;SDS_P1;SDS_P2;PMS_P1;PMS_P2;Temp;Humidity;BMP_temperature;BMP_pressure;BME280_temperature;BME280_humidity;BME280_pressure;Samples;Min_cycle;Max_cycle;Signal;HPM_P1;HPM_P2
2023/03/29 00:00:58;;;;;;;;;;;;;;;4.97;100.00;101650.78;5036933;28;19942;-82
2023/03/29 00:03:23;;;;;;;;;;;;;;;4.86;100.00;101657.38;5030465;28;19920;-81
2023/03/29 00:05:49;;;;;;;;;;;;;;;4.90;100.00;101651.00;5025880;28;20412;-82
2023/03/29 00:08:17;;;;;;;;;;;;;;;5.00;100.00;101647.97;5020543;28;19920;-81
2023/03/29 00:10:42;;;;;;;;;;;;;;;4.87;100.00;101645.81;5022706;28;19924;-82
2023/03/29 00:13:07;;;;;;;;;;;;;;;4.95;100.00;101643.72;5028687;28;19920;-81
2023/03/29 00:15:32;;;;;;;;;;;;;;;4.89;100.00;101651.09;5023026;28;19934;-81
2023/03/29 00:17:58;;;;;;;;;;;;;;;4.93;100.00;101642.03;5021133;28;19924;-81
2023/03/29 00:20:23;;;;;;;;;;;;;;;4.93;100.00;101605.66;5035069;28;19921;-81
2023/03/29 00:22:48;;;;;;;;;;;;;;;5.04;100.00;101622.94;5018065;28;20505;-80
2023/03/29 00:25:13;;;;;;;;;;;;;;;4.98;100.00;101623.22;5020736;28;20330;-81
2023/03/29 00:27:39;;;;;;;;;;;;;;;5.03;100.00;101616.78;5022308;28;19931;-82
2023/03/29 00:30:05;;;;;;;;;;;;;;;5.02;100.00;101617.69;5021472;28;19927;-82
2023/03/29 00:32:31;;;;;;;;;;;;;;;5.08;100.00;101619.22;5033308;28;20030;-80
2023/03/29 00:34:56;;;;;;;;;;;;;;;5.12;100.00;101623.50;5019608;28;20514;-83
2023/03/29 00:37:25;;;;;;;;;;;;;;;5.17;100.00;101621.50;5021284;28;20434;-82
2023/03/29 00:39:51;;;;;;;;;;;;;;;5.12;100.00;101619.97;5017675;28;20761;-81
2023/03/29 00:42:16;;;;;;;;;;;;;;;5.05;100.00;101622.00;5035423;28;20202;-82
2023/03/29 00:44:51;;;;;;;;;;;;;;;5.12;100.00;101618.16;5017905;28;19971;-82
2023/03/29 00:47:17;;;;;;;;;;;;;;;5.05;100.00;101611.38;5033516;28;20038;-81
2023/03/29 00:49:43;;;;;;;;;;;;;;;5.20;100.00;101615.19;5019115;28;19928;-81
2023/03/29 00:52:09;;;;;;;;;;;;;;;4.99;100.00;101599.19;5017724;28;20264;-81
2023/03/29 00:54:36;;;;;;;;;;;;;;;5.07;100.00;101596.19;5016775;28;20383;-81
2023/03/29 00:57:02;;;;;;;;;;;;;;;5.15;100.00;101596.75;5016954;28;19965;-80
2023/03/29 00:59:28;;;;;;;;;;;;;;;5.06;100.00;101590.03;5032552;28;19927;-81
2023/03/29 01:01:56;;;;;;;;;;;;;;;5.34;100.00;101594.16;5018408;28;20515;-82
2023/03/29 01:04:41;;;;;;;;;;;;;;;5.32;100.00;101593.34;5015687;28;19925;-80
2023/03/29 01:07:12;;;;;;;;;;;;;;;5.11;100.00;101603.13;5032061;28;19921;-79
2023/03/29 01:09:37;;;;;;;;;;;;;;;5.30;100.00;101587.22;5032487;28;19939;-81
2023/03/29 01:12:12;;;;;;;;;;;;;;;5.23;100.00;101578.66;5016236;28;19931;-80
2023/03/29 01:14:42;;;;;;;;;;;;;;;5.17;100.00;101584.25;5031824;28;19920;-81
2023/03/29 01:17:07;;;;;;;;;;;;;;;5.17;100.00;101575.38;5033171;28;19922;-82
2023/03/29 01:19:41;;;;;;;;;;;;;;;5.32;100.00;101569.41;5016855;28;20519;-80
2023/03/29 01:22:27;;;;;;;;;;;;;;;5.34;100.00;101567.53;5019372;28;19920;-80
2023/03/29 01:25:05;;;;;;;;;;;;;;;5.44;100.00;101564.44;5031856;28;19924;-81
2023/03/29 01:27:49;;;;;;;;;;;;;;;5.27;100.00;101557.22;5034409;28;20354;-80
2023/03/29 01:30:21;;;;;;;;;;;;;;;5.22;100.00;101558.28;5047494;28;19916;-81
2023/03/29 01:32:51;;;;;;;;;;;;;;;5.56;100.00;101562.09;5018678;28;20233;-81
2023/03/29 01:35:16;;;;;;;;;;;;;;;5.22;100.00;101560.94;5020605;28;20373;-79
2023/03/29 01:37:48;;;;;;;;;;;;;;;5.32;100.00;101556.06;5040152;28;19924;-81
2023/03/29 01:40:13;;;;;;;;;;;;;;;5.39;100.00;101562.88;5031906;28;19958;-81
2023/03/29 01:42:47;;;;;;;;;;;;;;;5.25;100.00;101552.84;5018706;28;19920;-79
2023/03/29 01:45:23;;;;;;;;;;;;;;;5.25;100.00;101544.84;5030523;28;20374;-80
2023/03/29 01:47:52;;;;;;;;;;;;;;;5.39;100.00;101548.69;5036587;28;19924;-79
2023/03/29 01:50:30;;;;;;;;;;;;;;;5.39;100.00;101549.56;5051624;28;20458;-81
2023/03/29 01:52:56;;;;;;;;;;;;;;;5.42;100.00;101543.22;5018558;28;20046;-81
2023/03/29 01:55:22;;;;;;;;;;;;;;;5.64;100.00;101532.47;5032616;28;20442;-79
2023/03/29 01:57:48;;;;;;;;;;;;;;;5.38;100.00;101538.94;5014579;28;19921;-79
2023/03/29 02:00:14;;;;;;;;;;;;;;;5.38;100.00;101534.50;5016908;28;20373;-78
2023/03/29 02:02:40;;;;;;;;;;;;;;;5.36;100.00;101531.03;5029401;28;20374;-79
2023/03/29 02:05:07;;;;;;;;;;;;;;;5.67;100.00;101524.31;5017433;28;20791;-79
2023/03/29 02:07:36;;;;;;;;;;;;;;;5.49;100.00;101533.13;5016390;28;19927;-79
2023/03/29 02:10:02;;;;;;;;;;;;;;;5.23;100.00;101521.84;5018501;28;19920;-79
2023/03/29 02:12:27;;;;;;;;;;;;;;;5.35;100.00;101513.34;5018578;28;19924;-79
2023/03/29 02:14:53;;;;;;;;;;;;;;;5.40;100.00;101523.78;5036659;28;20337;-80
2023/03/29 02:17:23;;;;;;;;;;;;;;;5.30;100.00;101525.13;5017762;28;19920;-80
2023/03/29 02:20:19;;;;;;;;;;;;;;;5.63;100.00;101529.84;5033254;28;19972;-80
2023/03/29 02:22:53;;;;;;;;;;;;;;;5.47;100.00;101522.56;5051034;28;20121;-81
2023/03/29 02:25:18;;;;;;;;;;;;;;;5.46;100.00;101510.19;5017759;28;19939;-79
2023/03/29 02:27:44;;;;;;;;;;;;;;;5.59;100.00;101514.94;5037386;28;20375;-81
2023/03/29 02:30:10;;;;;;;;;;;;;;;5.67;100.00;101511.00;5032529;28;19939;-81
2023/03/29 02:32:42;;;;;;;;;;;;;;;5.70;100.00;101512.66;5036888;28;20019;-79
2023/03/29 02:35:12;;;;;;;;;;;;;;;5.47;100.00;101503.03;5055674;28;19924;-83
2023/03/29 02:37:40;;;;;;;;;;;;;;;5.45;100.00;101502.25;5030833;28;20291;-79
2023/03/29 02:40:11;;;;;;;;;;;;;;;5.33;100.00;101501.88;5038320;28;19925;-82
2023/03/29 02:42:36;;;;;;;;;;;;;;;5.32;100.00;101497.50;5035126;28;19920;-79
2023/03/29 02:45:01;;;;;;;;;;;;;;;5.17;100.00;101496.38;5039199;28;19920;-80
2023/03/29 02:47:31;;;;;;;;;;;;;;;5.23;100.00;101489.91;5038811;28;19953;-79
2023/03/29 02:49:57;;;;;;;;;;;;;;;5.25;100.00;101480.06;5020371;28;19920;-80
2023/03/29 02:52:23;;;;;;;;;;;;;;;5.18;100.00;101484.81;5037241;28;19943;-80
2023/03/29 02:54:49;;;;;;;;;;;;;;;5.49;100.00;101487.84;5035712;28;19920;-82
2023/03/29 02:57:14;;;;;;;;;;;;;;;5.37;100.00;101474.19;5020826;28;19921;-78
2023/03/29 02:59:42;;;;;;;;;;;;;;;5.21;100.00;101473.13;5036402;28;20373;-80
2023/03/29 03:02:07;;;;;;;;;;;;;;;5.35;100.00;101467.19;5018308;28;20290;-80
2023/03/29 03:04:34;;;;;;;;;;;;;;;5.27;100.00;101472.88;5038573;28;19921;-82
2023/03/29 03:06:59;;;;;;;;;;;;;;;5.63;100.00;101458.78;5022342;28;20248;-82
2023/03/29 03:09:24;;;;;;;;;;;;;;;5.46;100.00;101472.00;5034318;28;19921;-80
2023/03/29 03:11:50;;;;;;;;;;;;;;;5.52;100.00;101467.28;5020975;28;19924;-79
2023/03/29 03:14:15;;;;;;;;;;;;;;;5.39;100.00;101460.78;5023902;28;19931;-80
2023/03/29 03:16:40;;;;;;;;;;;;;;;5.39;100.00;101460.78;5020530;28;19921;-80
2023/03/29 03:19:06;;;;;;;;;;;;;;;5.36;100.00;101453.81;5019513;28;20033;-82
2023/03/29 03:21:32;;;;;;;;;;;;;;;5.48;100.00;101451.50;5022275;28;19935;-81
2023/03/29 03:23:57;;;;;;;;;;;;;;;5.49;100.00;101445.25;5037959;28;19921;-80
2023/03/29 03:26:23;;;;;;;;;;;;;;;5.45;100.00;101443.66;5037641;28;19986;-80
2023/03/29 03:28:49;;;;;;;;;;;;;;;5.58;100.00;101439.50;5050761;28;19951;-80
2023/03/29 03:31:14;;;;;;;;;;;;;;;5.49;100.00;101439.91;5034012;28;20758;-80
2023/03/29 03:33:40;;;;;;;;;;;;;;;5.56;100.00;101438.69;5039830;28;20317;-80
2023/03/29 03:36:09;;;;;;;;;;;;;;;5.38;100.00;101435.09;5036815;28;20498;-79
2023/03/29 03:38:34;;;;;;;;;;;;;;;5.63;100.00;101433.94;5039320;28;19924;-80
2023/03/29 03:41:00;;;;;;;;;;;;;;;5.49;100.00;101438.13;5026549;28;20344;-80
2023/03/29 03:43:26;;;;;;;;;;;;;;;5.49;100.00;101431.94;5038024;28;19921;-79
2023/03/29 03:45:51;;;;;;;;;;;;;;;5.41;100.00;101432.28;5036447;28;20336;-79
2023/03/29 03:48:16;;;;;;;;;;;;;;;5.38;100.00;101433.31;5038223;28;19924;-80
2023/03/29 03:50:46;;;;;;;;;;;;;;;5.44;100.00;101432.16;5035666;28;19927;-79
2023/03/29 03:53:11;;;;;;;;;;;;;;;5.52;100.00;101431.78;5035954;28;20113;-80
2023/03/29 03:55:38;;;;;;;;;;;;;;;5.40;100.00;101431.44;5018933;28;20584;-79
2023/03/29 03:58:03;;;;;;;;;;;;;;;5.47;100.00;101429.34;5021625;28;19924;-79
2023/03/29 04:00:28;;;;;;;;;;;;;;;5.42;100.00;101441.16;5018443;28;20498;-80
2023/03/29 04:02:55;;;;;;;;;;;;;;;5.47;100.00;101439.13;5017966;28;20061;-80
2023/03/29 04:05:20;;;;;;;;;;;;;;;5.43;100.00;101440.22;5019026;28;19920;-79
2023/03/29 04:07:45;;;;;;;;;;;;;;;5.56;100.00;101439.56;5019890;28;19927;-79
2023/03/29 04:10:10;;;;;;;;;;;;;;;5.68;100.00;101440.81;5033429;28;20006;-78
2023/03/29 04:12:36;;;;;;;;;;;;;;;5.60;100.00;101439.41;5032933;28;19924;-80
2023/03/29 04:15:02;;;;;;;;;;;;;;;5.59;100.00;101449.22;5015875;28;20248;-78
2023/03/29 04:17:27;;;;;;;;;;;;;;;5.54;100.00;101437.91;5017765;28;20405;-80
2023/03/29 04:19:52;;;;;;;;;;;;;;;5.56;100.00;101436.88;5029256;28;20242;-80
2023/03/29 04:22:18;;;;;;;;;;;;;;;5.44;100.00;101440.16;5020079;28;19924;-80
2023/03/29 04:24:43;;;;;;;;;;;;;;;5.63;100.00;101436.59;5030849;28;20250;-80
2023/03/29 04:27:08;;;;;;;;;;;;;;;5.70;100.00;101425.56;5018204;28;19921;-81
2023/03/29 04:29:33;;;;;;;;;;;;;;;5.67;100.00;101428.41;5018028;28;19960;-80
2023/03/29 04:31:58;;;;;;;;;;;;;;;5.71;100.00;101411.31;5017371;28;20034;-80
2023/03/29 04:34:24;;;;;;;;;;;;;;;5.92;100.00;101410.34;5018627;28;20917;-80
2023/03/29 04:36:49;;;;;;;;;;;;;;;5.81;100.00;101408.22;5035132;28;20422;-79
2023/03/29 04:39:16;;;;;;;;;;;;;;;5.93;100.00;101404.97;5014794;28;20445;-79
2023/03/29 04:41:42;;;;;;;;;;;;;;;5.76;100.00;101410.22;5026063;28;20319;-79
2023/03/29 04:44:07;;;;;;;;;;;;;;;5.84;100.00;101398.25;5034851;28;20059;-78
2023/03/29 04:46:33;;;;;;;;;;;;;;;5.79;100.00;101400.31;5036395;28;19947;-80
2023/03/29 04:48:58;;;;;;;;;;;;;;;5.90;100.00;101405.09;5021165;28;19965;-80
2023/03/29 04:51:24;;;;;;;;;;;;;;;5.79;100.00;101402.09;5019821;28;20533;-79
2023/03/29 04:53:49;;;;;;;;;;;;;;;5.84;100.00;101400.91;5036334;28;19923;-80
2023/03/29 04:56:15;;;;;;;;;;;;;;;5.85;100.00;101383.16;5021353;28;19920;-81
2023/03/29 04:58:41;;;;;;;;;;;;;;;5.86;100.00;101392.88;5037384;28;19929;-80
2023/03/29 05:01:06;;;;;;;;;;;;;;;5.94;100.00;101398.69;5037724;28;19920;-80
2023/03/29 05:03:31;;;;;;;;;;;;;;;5.99;100.00;101398.47;5023467;28;19916;-78
2023/03/29 05:06:01;;;;;;;;;;;;;;;5.89;100.00;101397.16;5021993;28;19920;-81
2023/03/29 05:08:26;;;;;;;;;;;;;;;5.89;100.00;101398.06;5037017;28;19938;-81
2023/03/29 05:10:52;;;;;;;;;;;;;;;6.10;100.00;101397.94;5034710;28;19921;-81
2023/03/29 05:13:17;;;;;;;;;;;;;;;6.19;100.00;101393.94;5036336;28;19995;-81
2023/03/29 05:15:42;;;;;;;;;;;;;;;5.97;100.00;101392.34;5038199;28;20278;-80
2023/03/29 05:18:08;;;;;;;;;;;;;;;6.09;100.00;101398.88;5018482;28;20391;-80
2023/03/29 05:20:33;;;;;;;;;;;;;;;6.20;100.00;101398.34;5036630;28;20353;-81
2023/03/29 05:22:59;;;;;;;;;;;;;;;6.08;100.00;101403.38;5021398;28;19966;-79
2023/03/29 05:25:25;;;;;;;;;;;;;;;6.15;100.00;101398.59;5022083;28;20325;-81
2023/03/29 05:27:50;;;;;;;;;;;;;;;6.26;100.00;101392.72;5051356;28;19950;-80
2023/03/29 05:30:16;;;;;;;;;;;;;;;6.19;100.00;101401.94;5020551;28;20024;-80
2023/03/29 05:32:41;;;;;;;;;;;;;;;6.29;100.00;101389.91;5016179;28;20004;-82
2023/03/29 05:35:06;;;;;;;;;;;;;;;6.24;100.00;101391.94;5021301;28;20180;-80
2023/03/29 05:37:33;;;;;;;;;;;;;;;6.18;100.00;101387.78;5036748;28;19928;-80
2023/03/29 05:39:58;;;;;;;;;;;;;;;6.33;100.00;101393.25;5036736;28;19927;-80
2023/03/29 05:42:23;;;;;;;;;;;;;;;6.28;100.00;101398.84;5020287;28;19921;-78
2023/03/29 05:44:48;;;;;;;;;;;;;;;6.36;100.00;101395.78;5055356;28;20293;-77
2023/03/29 05:47:14;;;;;;;;;;;;;;;6.42;100.00;101392.78;5038068;28;19970;-80
2023/03/29 05:49:39;;;;;;;;;;;;;;;6.39;100.00;101396.47;5038041;28;19920;-81
2023/03/29 05:52:05;;;;;;;;;;;;;;;6.34;100.00;101397.66;5030822;28;19972;-80
2023/03/29 05:54:30;;;;;;;;;;;;;;;6.37;100.00;101401.00;5021948;28;20382;-81
2023/03/29 05:56:56;;;;;;;;;;;;;;;6.36;100.00;101406.44;5037788;28;20388;-80
2023/03/29 05:59:22;;;;;;;;;;;;;;;6.56;100.00;101405.41;5022031;28;20594;-80
2023/03/29 06:01:47;;;;;;;;;;;;;;;6.51;100.00;101408.31;5036543;28;19920;-80
2023/03/29 06:04:13;;;;;;;;;;;;;;;6.51;100.00;101408.31;5027679;28;19935;-80
2023/03/29 06:06:38;;;;;;;;;;;;;;;6.64;100.00;101413.03;5030702;28;20019;-80
2023/03/29 06:09:04;;;;;;;;;;;;;;;6.57;100.00;101416.00;5031345;28;19925;-80
2023/03/29 06:11:30;;;;;;;;;;;;;;;6.57;100.00;101418.66;5040258;28;19924;-81
2023/03/29 06:13:56;;;;;;;;;;;;;;;6.54;100.00;101410.81;5043552;28;20321;-80
2023/03/29 06:16:21;;;;;;;;;;;;;;;6.53;100.00;101416.25;5019379;28;19920;-80
2023/03/29 06:18:46;;;;;;;;;;;;;;;6.61;100.00;101411.38;5016157;28;20687;-80
2023/03/29 06:21:12;;;;;;;;;;;;;;;6.42;100.00;101412.31;5043519;28;19923;-79
2023/03/29 06:23:37;;;;;;;;;;;;;;;6.59;100.00;101407.94;5041096;28;20429;-80
2023/03/29 06:26:02;;;;;;;;;;;;;;;6.60;100.00;101415.00;5012445;28;20385;-80
2023/03/29 06:28:28;;;;;;;;;;;;;;;6.65;100.00;101418.25;5034409;28;20227;-80
2023/03/29 06:30:55;;;;;;;;;;;;;;;6.78;100.00;101406.97;5017765;28;19947;-80
2023/03/29 06:33:21;;;;;;;;;;;;;;;6.69;100.00;101416.31;5037358;28;19963;-79
2023/03/29 06:35:47;;;;;;;;;;;;;;;6.85;100.00;101416.38;5019958;28;19921;-79
2023/03/29 06:38:13;;;;;;;;;;;;;;;6.85;100.00;101409.22;5013434;28;19944;-79
2023/03/29 06:40:39;;;;;;;;;;;;;;;6.98;100.00;101409.41;5037479;28;20366;-80
2023/03/29 06:43:04;;;;;;;;;;;;;;;6.80;100.00;101376.56;5017910;28;19920;-80
2023/03/29 06:45:30;;;;;;;;;;;;;;;6.95;100.00;101411.41;5016366;28;19942;-79
2023/03/29 06:47:55;;;;;;;;;;;;;;;6.83;100.00;101407.59;5014803;28;19920;-80
2023/03/29 06:50:22;;;;;;;;;;;;;;;6.96;100.00;101407.78;5012348;28;20358;-80
2023/03/29 06:52:47;;;;;;;;;;;;;;;7.01;100.00;101403.91;5017727;28;20405;-80
2023/03/29 06:55:12;;;;;;;;;;;;;;;7.10;100.00;101410.56;5018541;28;19989;-78
2023/03/29 06:57:38;;;;;;;;;;;;;;;7.22;100.00;101419.72;5019933;28;20376;-79
2023/03/29 07:00:38;;;;;;;;;;;;;;;7.19;100.00;101414.53;5032153;28;20043;-80
2023/03/29 07:02:57;;;;;;;;;;;;;;;7.23;100.00;101417.94;5037918;28;19924;-79
2023/03/29 07:05:23;;;;;;;;;;;;;;;7.32;100.00;101412.06;5043057;28;20367;-80
2023/03/29 07:08:10;;;;;;;;;;;;;;;7.37;100.00;101412.69;5021691;28;20019;-80
2023/03/29 07:10:38;;;;;;;;;;;;;;;7.42;100.00;101420.44;5040007;28;19920;-81
2023/03/29 07:13:04;;;;;;;;;;;;;;;7.67;100.00;101416.41;5039356;28;20358;-79
2023/03/29 07:15:30;;;;;;;;;;;;;;;7.51;100.00;101419.94;5037274;28;19925;-78
2023/03/29 07:17:56;;;;;;;;;;;;;;;7.53;100.00;101417.19;5019270;28;19927;-80
2023/03/29 07:20:22;;;;;;;;;;;;;;;7.60;100.00;101416.75;5026016;28;19927;-78
2023/03/29 07:22:49;;;;;;;;;;;;;;;7.76;100.00;101416.75;5024002;28;19920;-79
2023/03/29 07:25:15;;;;;;;;;;;;;;;7.81;100.00;101414.66;5021877;28;19920;-79
2023/03/29 07:27:41;;;;;;;;;;;;;;;7.92;100.00;101411.41;5025494;28;19923;-79
2023/03/29 07:30:10;;;;;;;;;;;;;;;8.10;100.00;101416.63;5042631;28;19916;-77
2023/03/29 07:32:36;;;;;;;;;;;;;;;8.06;100.00;101423.97;5049938;28;20336;-79
2023/03/29 07:35:04;;;;;;;;;;;;;;;8.08;100.00;101431.88;5017875;28;19961;-79
2023/03/29 07:37:29;;;;;;;;;;;;;;;8.08;100.00;101426.53;5040964;28;19927;-79
2023/03/29 07:39:55;;;;;;;;;;;;;;;8.10;100.00;101428.16;5037954;28;19920;-79
2023/03/29 07:42:20;;;;;;;;;;;;;;;8.13;100.00;101431.63;5038365;28;20259;-80
2023/03/29 07:44:47;;;;;;;;;;;;;;;8.19;100.00;101432.13;5033852;28;19946;-80
2023/03/29 07:47:12;;;;;;;;;;;;;;;8.36;100.00;101430.28;5019901;28;20000;-80
2023/03/29 07:49:37;;;;;;;;;;;;;;;8.53;100.00;101432.00;5020817;28;20275;-79
2023/03/29 07:52:03;;;;;;;;;;;;;;;8.43;100.00;101437.00;5022721;28;19993;-79
2023/03/29 07:54:31;;;;;;;;;;;;;;;8.43;100.00;101441.47;5031726;28;19921;-79
2023/03/29 07:56:56;;;;;;;;;;;;;;;8.50;100.00;101438.38;5038056;28;20364;-80
2023/03/29 07:59:21;;;;;;;;;;;;;;;8.53;100.00;101445.38;5037908;28;19921;-77
2023/03/29 08:01:46;;;;;;;;;;;;;;;8.53;100.00;101451.56;5036125;28;19921;-79
2023/03/29 08:04:12;;;;;;;;;;;;;;;8.78;100.00;101442.06;5037878;28;19996;-79
2023/03/29 08:06:37;;;;;;;;;;;;;;;8.56;100.00;101439.84;5037233;28;19982;-78
2023/03/29 08:09:02;;;;;;;;;;;;;;;8.55;100.00;101443.47;5037742;28;20015;-78
2023/03/29 08:11:27;;;;;;;;;;;;;;;8.62;100.00;101441.28;5036183;28;20410;-80
2023/03/29 08:13:53;;;;;;;;;;;;;;;8.73;100.00;101446.84;5046484;28;19920;-79
2023/03/29 08:16:18;;;;;;;;;;;;;;;8.67;100.00;101441.88;5019378;28;19917;-80
2023/03/29 08:18:43;;;;;;;;;;;;;;;8.68;100.00;101443.59;5016300;28;19932;-79
2023/03/29 08:21:08;;;;;;;;;;;;;;;8.63;100.00;101438.50;5019105;28;20518;-78
2023/03/29 08:23:34;;;;;;;;;;;;;;;8.62;100.00;101441.28;5037267;28;20011;-80
2023/03/29 08:25:59;;;;;;;;;;;;;;;8.84;100.00;101443.53;5039934;28;20537;-81
2023/03/29 08:28:24;;;;;;;;;;;;;;;8.66;100.00;101437.47;5040320;28;20414;-78
2023/03/29 08:30:49;;;;;;;;;;;;;;;8.66;100.00;101430.28;5032299;28;19925;-79
2023/03/29 08:33:15;;;;;;;;;;;;;;;8.67;100.00;101432.00;5025425;28;19917;-80
2023/03/29 08:35:40;;;;;;;;;;;;;;;8.66;100.00;101432.13;5037627;28;19920;-79
2023/03/29 08:38:07;;;;;;;;;;;;;;;8.63;100.00;101430.47;5023026;28;20006;-79
2023/03/29 08:40:32;;;;;;;;;;;;;;;8.46;100.00;101430.59;5038243;28;20408;-80
2023/03/29 08:43:04;;;;;;;;;;;;;;;8.59;100.00;101428.94;5024277;28;19960;-79
2023/03/29 08:45:49;;;;;;;;;;;;;;;8.54;100.00;101439.06;5018632;28;19924;-80
2023/03/29 08:48:20;;;;;;;;;;;;;;;8.59;100.00;101438.78;5049187;28;19998;-80
2023/03/29 08:50:47;;;;;;;;;;;;;;;8.65;100.00;101439.25;5037188;28;20015;-78
2023/03/29 08:53:14;;;;;;;;;;;;;;;8.81;100.00;101439.19;5022621;28;19970;-80
2023/03/29 08:55:40;;;;;;;;;;;;;;;8.59;100.00;101431.63;5046188;28;19990;-82
2023/03/29 08:58:07;;;;;;;;;;;;;;;8.66;100.00;101437.47;5018464;28;19931;-79
2023/03/29 09:00:38;;;;;;;;;;;;;;;8.42;100.00;101437.94;5036160;28;19920;-77
2023/03/29 09:03:12;;;;;;;;;;;;;;;8.46;100.00;101431.47;5047616;28;20397;-80
2023/03/29 09:05:42;;;;;;;;;;;;;;;8.79;100.00;101433.06;5034734;28;20367;-80
2023/03/29 09:08:16;;;;;;;;;;;;;;;8.92;100.00;101435.03;5037538;28;20026;-80
2023/03/29 09:10:43;;;;;;;;;;;;;;;9.07;100.00;101419.81;5038265;28;19920;-78
2023/03/29 09:13:15;;;;;;;;;;;;;;;9.12;100.00;101420.41;5027392;28;19921;-79
2023/03/29 09:15:48;;;;;;;;;;;;;;;9.29;100.00;101432.72;5019084;28;19920;-80
2023/03/29 09:18:14;;;;;;;;;;;;;;;9.52;100.00;101428.59;5032318;28;20022;-79
2023/03/29 09:20:57;;;;;;;;;;;;;;;9.65;100.00;101419.75;5043864;28;19924;-79
2023/03/29 09:23:29;;;;;;;;;;;;;;;9.69;100.00;101416.78;5022582;28;19923;-79
2023/03/29 09:25:54;;;;;;;;;;;;;;;9.89;100.00;101415.47;5038072;28;19924;-79
2023/03/29 09:28:26;;;;;;;;;;;;;;;9.83;100.00;101418.56;5037637;28;20388;-80
2023/03/29 09:30:58;;;;;;;;;;;;;;;9.86;100.00;101412.13;5040573;28;20343;-77
2023/03/29 09:33:31;;;;;;;;;;;;;;;10.10;100.00;101411.44;5057645;28;20248;-80
2023/03/29 09:36:05;;;;;;;;;;;;;;;10.24;100.00;101415.91;5032290;28;20000;-80
2023/03/29 09:38:31;;;;;;;;;;;;;;;10.25;100.00;101421.19;5056475;28;20217;-78
2023/03/29 09:40:57;;;;;;;;;;;;;;;10.26;100.00;101414.84;5018385;28;20019;-78
2023/03/29 09:43:49;;;;;;;;;;;;;;;10.17;100.00;101410.97;5065460;28;19951;-79
2023/03/29 09:46:38;;;;;;;;;;;;;;;10.39;100.00;101409.53;5050476;28;19939;-78
2023/03/29 09:49:03;;;;;;;;;;;;;;;10.02;100.00;101423.56;5002259;28;20293;-78
2023/03/29 09:51:29;;;;;;;;;;;;;;;9.93;100.00;101416.13;5038262;28;19935;-78
2023/03/29 09:53:55;;;;;;;;;;;;;;;9.96;100.00;101415.94;5035137;28;20014;-82
2023/03/29 09:56:20;;;;;;;;;;;;;;;10.12;100.00;101418.44;5021356;28;20468;-78
2023/03/29 09:58:46;;;;;;;;;;;;;;;10.31;100.00;101403.78;5045075;28;20026;-78
2023/03/29 10:01:11;;;;;;;;;;;;;;;10.41;100.00;101409.41;5040445;28;19958;-79
2023/03/29 10:03:38;;;;;;;;;;;;;;;10.02;100.00;101420.88;5019808;28;20463;-79
2023/03/29 10:06:05;;;;;;;;;;;;;;;10.17;100.00;101400.22;5037357;28;19958;-79
2023/03/29 10:08:41;;;;;;;;;;;;;;;10.17;100.00;101407.41;5036493;28;19925;-78
2023/03/29 10:11:08;;;;;;;;;;;;;;;10.18;100.00;101401.94;5035586;28;19969;-80
2023/03/29 10:13:34;;;;;;;;;;;;;;;10.36;100.00;101412.41;5035980;28;19950;-79
2023/03/29 10:16:03;;;;;;;;;;;;;;;10.56;100.00;101420.94;5030531;28;19921;-80
2023/03/29 10:18:29;;;;;;;;;;;;;;;10.89;100.00;101416.88;5027847;28;19930;-80
2023/03/29 10:21:02;;;;;;;;;;;;;;;10.79;100.00;101425.56;5035330;28;19924;-80
2023/03/29 10:23:31;;;;;;;;;;;;;;;10.33;100.00;101420.66;5018767;28;20387;-79
2023/03/29 10:25:56;;;;;;;;;;;;;;;10.25;100.00;101421.19;5020012;28;20004;-80
2023/03/29 10:28:23;;;;;;;;;;;;;;;10.48;100.00;101421.47;5034107;28;20573;-79
2023/03/29 10:30:55;;;;;;;;;;;;;;;10.31;100.00;101417.22;5031919;28;19927;-78
2023/03/29 10:33:20;;;;;;;;;;;;;;;10.15;100.00;101426.31;5024018;28;19932;-79
2023/03/29 10:35:46;;;;;;;;;;;;;;;10.11;100.00;101415.84;5036012;28;19920;-80
2023/03/29 10:38:12;;;;;;;;;;;;;;;10.12;100.00;101418.44;5046244;28;19943;-77
2023/03/29 10:40:47;;;;;;;;;;;;;;;10.02;100.00;101411.97;5038475;28;19982;-79
2023/03/29 10:43:13;;;;;;;;;;;;;;;9.66;100.00;101416.13;5019908;28;20383;-79
2023/03/29 10:45:39;;;;;;;;;;;;;;;9.63;100.00;101402.91;5017532;28;19943;-79
2023/03/29 10:48:08;;;;;;;;;;;;;;;9.86;100.00;101407.63;5021873;28;19924;-77
2023/03/29 10:50:34;;;;;;;;;;;;;;;9.99;100.00;101407.69;5018727;28;19925;-77
2023/03/29 10:53:00;;;;;;;;;;;;;;;10.12;100.00;101413.09;5037962;28;19960;-79
2023/03/29 10:55:28;;;;;;;;;;;;;;;10.41;100.00;101415.66;5019395;28;19935;-79
2023/03/29 10:58:03;;;;;;;;;;;;;;;10.37;100.00;101411.44;5029958;28;20206;-77
2023/03/29 11:00:32;;;;;;;;;;;;;;;10.52;100.00;101409.56;5035002;28;19920;-79
2023/03/29 11:03:06;;;;;;;;;;;;;;;10.41;100.00;101404.03;5023818;28;19916;-79
2023/03/29 11:05:38;;;;;;;;;;;;;;;10.49;100.00;101386.44;5043707;28;20537;-77
2023/03/29 11:08:11;;;;;;;;;;;;;;;10.30;100.00;101391.31;5042029;28;19942;-79
2023/03/29 11:10:39;;;;;;;;;;;;;;;10.11;100.00;101378.28;5026384;28;19920;-78
2023/03/29 11:13:07;;;;;;;;;;;;;;;10.04;100.00;101369.81;5053715;28;20363;-77
2023/03/29 11:15:33;;;;;;;;;;;;;;;10.41;100.00;101366.47;5053413;28;20061;-79
2023/03/29 11:18:10;;;;;;;;;;;;;;;10.74;100.00;101370.47;5040636;28;19920;-79
2023/03/29 11:20:41;;;;;;;;;;;;;;;10.92;100.00;101366.47;5037563;28;19972;-79
2023/03/29 11:23:13;;;;;;;;;;;;;;;10.85;100.00;101362.53;5039999;28;19920;-81
2023/03/29 11:25:49;;;;;;;;;;;;;;;10.83;100.00;101364.47;5034625;28;19921;-79
2023/03/29 11:28:18;;;;;;;;;;;;;;;10.91;100.00;101358.53;5033824;28;20422;-79
2023/03/29 11:30:46;;;;;;;;;;;;;;;10.86;100.00;101352.63;5028623;28;19970;-79
2023/03/29 11:33:11;;;;;;;;;;;;;;;10.95;100.00;101351.97;5027184;28;19921;-78
2023/03/29 11:35:36;;;;;;;;;;;;;;;11.27;100.00;101350.63;5052367;28;19994;-79
2023/03/29 11:38:17;;;;;;;;;;;;;;;11.25;100.00;101342.69;5039185;28;20422;-79
2023/03/29 11:40:43;;;;;;;;;;;;;;;11.30;100.00;101345.88;5034820;28;19916;-79
2023/03/29 11:43:10;;;;;;;;;;;;;;;11.42;100.00;101349.50;5039774;28;19943;-79
2023/03/29 11:45:38;;;;;;;;;;;;;;;11.33;100.00;101361.78;5034567;28;19920;-79
2023/03/29 11:48:03;;;;;;;;;;;;;;;11.31;100.00;101360.19;5029276;28;20314;-78
2023/03/29 11:50:42;;;;;;;;;;;;;;;11.29;100.00;101359.44;5022404;28;19931;-78
2023/03/29 11:53:07;;;;;;;;;;;;;;;11.18;100.00;101361.06;5040946;28;19925;-78
2023/03/29 11:55:34;;;;;;;;;;;;;;;11.30;100.00;101359.31;5040545;28;19924;-78
2023/03/29 11:58:01;;;;;;;;;;;;;;;11.34;100.00;101358.13;5021145;28;19921;-80
2023/03/29 12:00:37;;;;;;;;;;;;;;;11.46;100.00;101361.75;5019372;28;20023;-79
2023/03/29 12:03:06;;;;;;;;;;;;;;;11.45;100.00;101360.03;5039304;28;20011;-79
2023/03/29 12:05:40;;;;;;;;;;;;;;;11.53;100.00;101357.63;5020851;28;20260;-79
2023/03/29 12:08:07;;;;;;;;;;;;;;;11.69;100.00;101340.34;5060225;28;19962;-78
2023/03/29 12:10:36;;;;;;;;;;;;;;;11.57;100.00;101344.81;5041595;28;19920;-77
2023/03/29 12:13:08;;;;;;;;;;;;;;;11.79;100.00;101343.19;5025997;28;19924;-79
2023/03/29 12:15:35;;;;;;;;;;;;;;;11.72;100.00;101341.97;5055374;28;20038;-79
2023/03/29 12:18:01;;;;;;;;;;;;;;;11.67;100.00;101339.59;5019679;28;19920;-78
2023/03/29 12:20:28;;;;;;;;;;;;;;;11.89;100.00;101328.09;5057911;28;19916;-78
2023/03/29 12:22:53;;;;;;;;;;;;;;;11.87;100.00;101343.50;5034164;28;19982;-79
2023/03/29 12:25:33;;;;;;;;;;;;;;;12.05;100.00;101345.81;5026956;28;20015;-79
2023/03/29 12:28:11;;;;;;;;;;;;;;;12.12;100.00;101339.84;5034537;28;20404;-80
2023/03/29 12:30:41;;;;;;;;;;;;;;;11.92;100.00;101335.94;5048200;28;19936;-79
2023/03/29 12:33:10;;;;;;;;;;;;;;;11.92;100.00;101337.78;5037107;28;20264;-79
2023/03/29 12:35:38;;;;;;;;;;;;;;;11.84;100.00;101339.22;5036872;28;19925;-80
2023/03/29 12:38:18;;;;;;;;;;;;;;;11.91;100.00;101339.59;5040860;28;19928;-79